createdAt,value
2023-01-29T00:02:14.866Z,98481.44
2023-01-29T00:04:44.041Z,98476.28
2023-01-29T00:07:10.951Z,98483.47
2023-01-29T00:09:37.920Z,98480.19
2023-01-29T00:12:05.119Z,98485.59
2023-01-29T00:14:32.015Z,98490.97
2023-01-29T00:16:58.888Z,98493.00
2023-01-29T00:19:25.911Z,98490.34
2023-01-29T00:21:53.039Z,98493.13
2023-01-29T00:24:20.243Z,98494.81
2023-01-29T00:26:50.378Z,98496.44
2023-01-29T00:29:18.014Z,98497.81
2023-01-29T00:31:45.545Z,98500.47
2023-01-29T00:34:12.632Z,98511.31
2023-01-29T00:36:44.337Z,98517.25
2023-01-29T00:39:12.570Z,98509.84
2023-01-29T00:41:58.157Z,98510.31
2023-01-29T00:44:43.850Z,98509.75
2023-01-29T00:47:29.393Z,98505.81
2023-01-29T00:49:57.031Z,98511.25
2023-01-29T00:52:24.431Z,98507.53
2023-01-29T00:55:00.955Z,98510.31
2023-01-29T00:57:30.046Z,98513.06
2023-01-29T00:59:57.549Z,98511.91
2023-01-29T01:02:44.264Z,98514.34
2023-01-29T01:05:18.419Z,98515.97
2023-01-29T01:07:51.467Z,98523.31
2023-01-29T01:10:24.520Z,98528.47
2023-01-29T01:12:54.031Z,98523.34
2023-01-29T01:15:21.976Z,98525.63
2023-01-29T01:17:52.820Z,98534.31
2023-01-29T01:20:20.279Z,98538.41
2023-01-29T01:22:47.287Z,98529.41
2023-01-29T01:25:16.075Z,98528.78
2023-01-29T01:27:42.883Z,98529.97
2023-01-29T01:30:13.629Z,98525.81
2023-01-29T01:32:43.892Z,98524.09
2023-01-29T01:35:12.146Z,98524.94
2023-01-29T01:37:39.352Z,98523.94
2023-01-29T01:40:13.272Z,98515.25
2023-01-29T01:42:42.822Z,98527.56
2023-01-29T01:45:18.713Z,98526.69
2023-01-29T01:47:52.983Z,98527.34
2023-01-29T01:50:26.937Z,98530.84
2023-01-29T01:53:00.474Z,98526.25
2023-01-29T01:55:31.135Z,98527.97
2023-01-29T01:58:04.667Z,98523.00
2023-01-29T02:00:32.718Z,98527.84
2023-01-29T02:03:20.139Z,98520.44
2023-01-29T02:06:08.013Z,98528.09
2023-01-29T02:09:06.272Z,98532.75
2023-01-29T02:11:36.573Z,98536.31
2023-01-29T02:14:03.666Z,98528.16
2023-01-29T02:16:31.920Z,98531.34
2023-01-29T02:18:59.374Z,98535.09
2023-01-29T02:22:01.911Z,98536.53
2023-01-29T02:24:59.086Z,98542.72
2023-01-29T02:27:49.242Z,98536.53
2023-01-29T02:30:26.906Z,98542.56
2023-01-29T02:32:59.279Z,98543.16
2023-01-29T02:36:03.714Z,98549.06
2023-01-29T02:38:41.179Z,98543.44
2023-01-29T02:41:46.452Z,98545.75
2023-01-29T02:44:19.514Z,98539.66
2023-01-29T02:46:58.748Z,98548.41
2023-01-29T02:49:38.518Z,98551.00
2023-01-29T02:52:13.618Z,98544.25
2023-01-29T02:54:44.381Z,98553.22
2023-01-29T02:57:37.275Z,98542.81
2023-01-29T03:00:18.850Z,98547.81
2023-01-29T03:02:58.627Z,98548.47
2023-01-29T03:05:33.777Z,98545.44
2023-01-29T03:08:10.377Z,98556.88
2023-01-29T03:10:42.257Z,98554.13
2023-01-29T03:13:16.609Z,98556.66
2023-01-29T03:15:51.375Z,98557.38
2023-01-29T03:18:43.712Z,98561.84
2023-01-29T03:21:36.981Z,98570.66
2023-01-29T03:24:24.513Z,98566.06
2023-01-29T03:27:11.892Z,98571.06
2023-01-29T03:30:03.815Z,98560.59
2023-01-29T03:32:49.740Z,98572.31
2023-01-29T03:35:35.779Z,98561.47
2023-01-29T03:38:10.361Z,98562.31
2023-01-29T03:40:49.332Z,98561.84
2023-01-29T03:43:30.125Z,98562.69
2023-01-29T03:46:22.505Z,98568.06
2023-01-29T03:48:55.398Z,98570.03
2023-01-29T03:51:34.583Z,98571.56
2023-01-29T03:54:01.561Z,98564.50
2023-01-29T03:56:47.115Z,98560.03
2023-01-29T03:59:23.052Z,98552.28
2023-01-29T04:02:19.446Z,98563.13
2023-01-29T04:04:52.066Z,98560.53
2023-01-29T04:07:24.611Z,98563.66
2023-01-29T04:10:13.085Z,98563.91
2023-01-29T04:12:55.585Z,98561.06
2023-01-29T04:15:26.137Z,98563.78
2023-01-29T04:17:55.881Z,98557.38
2023-01-29T04:20:38.776Z,98566.06
2023-01-29T04:23:07.646Z,98560.47
2023-01-29T04:25:44.948Z,98567.75
2023-01-29T04:28:20.656Z,98565.41
2023-01-29T04:31:08.622Z,98560.19
2023-01-29T04:33:44.138Z,98568.50
2023-01-29T04:36:30.373Z,98576.28
2023-01-29T04:39:17.529Z,98569.03
2023-01-29T04:41:55.696Z,98572.53
2023-01-29T04:44:27.715Z,98563.34
2023-01-29T04:47:31.807Z,98566.78
2023-01-29T04:50:01.344Z,98568.38
2023-01-29T04:53:06.925Z,98582.81
2023-01-29T04:55:40.569Z,98589.34
2023-01-29T04:58:32.151Z,98581.81
2023-01-29T05:01:01.128Z,98576.25
2023-01-29T05:03:30.260Z,98579.63
2023-01-29T05:05:59.981Z,98582.16
2023-01-29T05:08:29.537Z,98568.88
2023-01-29T05:10:59.124Z,98572.53
2023-01-29T05:13:27.323Z,98580.09
2023-01-29T05:16:02.972Z,98586.16
2023-01-29T05:18:31.174Z,98587.28
2023-01-29T05:21:02.275Z,98580.50
2023-01-29T05:23:29.140Z,98595.25
2023-01-29T05:25:56.995Z,98591.78
2023-01-29T05:28:24.149Z,98590.84
2023-01-29T05:30:53.699Z,98594.69
2023-01-29T05:33:25.160Z,98596.84
2023-01-29T05:35:52.089Z,98588.38
2023-01-29T05:38:19.948Z,98599.72
2023-01-29T05:40:47.084Z,98601.72
2023-01-29T05:43:19.876Z,98594.59
2023-01-29T05:46:00.295Z,98608.31
2023-01-29T05:48:29.190Z,98609.66
2023-01-29T05:51:05.172Z,98607.75
2023-01-29T05:53:32.956Z,98611.78
2023-01-29T05:56:03.756Z,98608.41
2023-01-29T05:58:32.216Z,98623.69
2023-01-29T06:00:59.060Z,98622.72
2023-01-29T06:03:26.591Z,98620.84
2023-01-29T06:05:53.447Z,98631.34
2023-01-29T06:08:20.527Z,98630.25
2023-01-29T06:10:47.734Z,98638.25
2023-01-29T06:13:14.852Z,98634.66
2023-01-29T06:15:41.644Z,98637.69
2023-01-29T06:18:09.025Z,98635.66
2023-01-29T06:20:38.299Z,98649.31
2023-01-29T06:23:05.542Z,98646.56
2023-01-29T06:25:32.599Z,98652.03
2023-01-29T06:27:59.763Z,98655.41
2023-01-29T06:30:28.376Z,98665.25
2023-01-29T06:32:59.185Z,98665.84
2023-01-29T06:35:26.380Z,98657.94
2023-01-29T06:37:53.307Z,98662.25
2023-01-29T06:40:21.428Z,98669.28
2023-01-29T06:42:48.212Z,98668.28
2023-01-29T06:45:15.584Z,98665.56
2023-01-29T06:47:42.577Z,98662.97
2023-01-29T06:50:10.458Z,98672.81
2023-01-29T06:52:37.322Z,98678.91
2023-01-29T06:55:05.628Z,98678.78
2023-01-29T06:57:32.522Z,98688.69
2023-01-29T06:59:59.742Z,98693.78
2023-01-29T07:02:26.891Z,98689.13
2023-01-29T07:04:53.707Z,98687.25
2023-01-29T07:07:20.642Z,98692.19
2023-01-29T07:09:47.542Z,98692.19
2023-01-29T07:12:14.262Z,98699.09
2023-01-29T07:14:41.077Z,98695.28
2023-01-29T07:17:07.928Z,98695.22
2023-01-29T07:19:34.743Z,98689.09
2023-01-29T07:22:03.304Z,98697.94
2023-01-29T07:24:30.267Z,98697.06
2023-01-29T07:26:57.116Z,98707.06
2023-01-29T07:29:24.074Z,98696.72
2023-01-29T07:31:51.060Z,98705.13
2023-01-29T07:34:20.405Z,98691.31
2023-01-29T07:36:47.270Z,98698.88
2023-01-29T07:39:14.304Z,98700.09
2023-01-29T07:41:41.413Z,98705.19
2023-01-29T07:44:16.224Z,98699.59
2023-01-29T07:46:43.715Z,98705.56
2023-01-29T07:49:11.123Z,98708.88
2023-01-29T07:51:38.398Z,98710.75
2023-01-29T07:54:07.527Z,98703.84
2023-01-29T07:56:35.052Z,98715.25
2023-01-29T07:59:03.747Z,98716.88
2023-01-29T08:01:30.911Z,98720.00
2023-01-29T08:03:57.805Z,98715.84
2023-01-29T08:06:25.539Z,98722.28
2023-01-29T08:08:53.154Z,98722.44
2023-01-29T08:11:20.414Z,98723.06
2023-01-29T08:13:47.265Z,98716.75
2023-01-29T08:16:14.940Z,98724.28
2023-01-29T08:18:46.303Z,98724.81
2023-01-29T08:21:14.153Z,98729.28
2023-01-29T08:23:41.166Z,98731.75
2023-01-29T08:26:08.046Z,98728.44
2023-01-29T08:28:35.652Z,98730.72
2023-01-29T08:31:02.604Z,98731.16
2023-01-29T08:33:38.617Z,98726.69
2023-01-29T08:36:07.534Z,98732.47
2023-01-29T08:38:35.675Z,98728.47
2023-01-29T08:41:02.589Z,98731.69
2023-01-29T08:43:29.704Z,98727.50
2023-01-29T08:45:59.107Z,98732.34
2023-01-29T08:48:26.023Z,98734.47
2023-01-29T08:50:58.025Z,98737.78
2023-01-29T08:53:25.074Z,98735.00
2023-01-29T08:55:52.872Z,98727.47
2023-01-29T08:58:20.523Z,98731.88
2023-01-29T09:00:47.490Z,98738.78
2023-01-29T09:03:16.801Z,98737.53
2023-01-29T09:05:43.770Z,98745.31
2023-01-29T09:08:10.751Z,98738.78
2023-01-29T09:10:37.629Z,98740.28
2023-01-29T09:13:06.679Z,98744.28
2023-01-29T09:15:33.589Z,98742.94
2023-01-29T09:18:04.344Z,98744.88
2023-01-29T09:20:31.264Z,98754.00
2023-01-29T09:22:59.586Z,98740.75
2023-01-29T09:25:26.665Z,98748.97
2023-01-29T09:27:54.851Z,98743.19
2023-01-29T09:30:22.519Z,98748.13
2023-01-29T09:32:54.259Z,98740.44
2023-01-29T09:35:24.028Z,98740.75
2023-01-29T09:37:52.475Z,98741.16
2023-01-29T09:40:32.065Z,98731.69
2023-01-29T09:43:06.811Z,98736.94
2023-01-29T09:45:35.461Z,98723.63
2023-01-29T09:48:05.970Z,98722.66
2023-01-29T09:50:41.189Z,98719.97
2023-01-29T09:53:30.544Z,98720.84
2023-01-29T09:56:14.815Z,98715.84
2023-01-29T09:58:43.774Z,98713.69
2023-01-29T10:01:36.531Z,98724.78
2023-01-29T10:04:27.475Z,98710.28
2023-01-29T10:07:00.700Z,98712.53
2023-01-29T10:10:07.872Z,98709.38
2023-01-29T10:12:53.650Z,98713.91
2023-01-29T10:15:30.998Z,98708.56
2023-01-29T10:18:07.056Z,98700.25
2023-01-29T10:20:59.285Z,98706.22
2023-01-29T10:23:35.050Z,98703.63
2023-01-29T10:26:02.151Z,98702.09
2023-01-29T10:28:34.302Z,98697.00
2023-01-29T10:31:07.521Z,98696.59
2023-01-29T10:33:49.203Z,98695.66
2023-01-29T10:36:48.812Z,98698.00
2023-01-29T10:39:18.781Z,98690.25
2023-01-29T10:42:05.817Z,98694.19
2023-01-29T10:44:32.801Z,98681.38
2023-01-29T10:47:37.249Z,98685.09
2023-01-29T10:50:32.861Z,98676.81
2023-01-29T10:53:11.933Z,98683.41
2023-01-29T10:55:57.556Z,98672.28
2023-01-29T10:58:31.357Z,98665.84
2023-01-29T11:00:59.312Z,98667.75
2023-01-29T11:03:34.357Z,98665.72
2023-01-29T11:06:25.389Z,98663.69
2023-01-29T11:09:20.826Z,98669.16
2023-01-29T11:11:55.502Z,98659.19
2023-01-29T11:14:45.533Z,98656.66
2023-01-29T11:17:17.119Z,98655.47
2023-01-29T11:19:48.069Z,98653.72
2023-01-29T11:22:20.826Z,98650.97
2023-01-29T11:25:10.395Z,98650.78
2023-01-29T11:27:44.470Z,98641.00
2023-01-29T11:30:37.943Z,98635.47
2023-01-29T11:33:26.238Z,98639.91
2023-01-29T11:35:53.673Z,98629.91
2023-01-29T11:38:28.828Z,98637.56
2023-01-29T11:41:07.583Z,98634.53
2023-01-29T11:43:34.597Z,98627.50
2023-01-29T11:46:07.428Z,98624.56
2023-01-29T11:48:48.476Z,98635.25
2023-01-29T11:51:27.296Z,98632.69
2023-01-29T11:54:04.786Z,98630.34
2023-01-29T11:56:41.552Z,98619.41
2023-01-29T11:59:29.206Z,98627.16
2023-01-29T12:02:03.219Z,98626.47
2023-01-29T12:04:31.059Z,98618.44
2023-01-29T12:06:58.430Z,98623.91
2023-01-29T12:09:28.377Z,98618.91
2023-01-29T12:11:56.305Z,98629.38
2023-01-29T12:14:34.384Z,98618.41
2023-01-29T12:38:59.798Z,98677.16
2023-01-29T12:41:36.486Z,98672.09
2023-01-29T12:44:22.872Z,98630.94
2023-01-29T12:46:56.400Z,98597.66
2023-01-29T12:49:27.753Z,98597.06
2023-01-29T12:52:07.916Z,98593.00
2023-01-29T12:55:01.766Z,98589.69
2023-01-29T12:58:01.440Z,98599.91
2023-01-29T13:00:38.424Z,98601.69
2023-01-29T13:03:08.479Z,98603.47
2023-01-29T13:07:57.387Z,98602.19
2023-01-29T13:10:32.846Z,98607.06
2023-01-29T13:13:19.734Z,98602.78
2023-01-29T13:15:48.507Z,98598.06
2023-01-29T13:18:44.928Z,98614.59
2023-01-29T13:21:16.532Z,98605.31
2023-01-29T13:23:47.585Z,98611.53
2023-01-29T13:26:19.687Z,98604.16
2023-01-29T13:28:48.350Z,98610.56
2023-01-29T13:31:25.441Z,98608.41
2023-01-29T13:34:04.597Z,98605.78
2023-01-29T13:36:37.057Z,98603.84
2023-01-29T13:39:07.787Z,98597.69
2023-01-29T13:41:42.869Z,98602.28
2023-01-29T13:44:28.375Z,98606.09
2023-01-29T13:46:58.021Z,98604.44
2023-01-29T13:49:35.836Z,98603.53
2023-01-29T13:52:17.552Z,98601.50
2023-01-29T13:54:59.043Z,98607.63
2023-01-29T13:57:56.775Z,98603.88
2023-01-29T14:00:31.543Z,98613.69
2023-01-29T14:03:01.868Z,98611.06
2023-01-29T14:05:31.652Z,98612.56
2023-01-29T14:08:14.695Z,98621.13
2023-01-29T14:10:44.799Z,98619.03
2023-01-29T14:13:21.449Z,98622.44
2023-01-29T14:15:57.473Z,98619.81
2023-01-29T14:18:27.545Z,98620.44
2023-01-29T14:20:59.550Z,98627.28
2023-01-29T14:23:54.084Z,98635.44
2023-01-29T14:26:46.783Z,98618.19
2023-01-29T14:29:33.808Z,98627.44
2023-01-29T14:32:20.058Z,98628.47
2023-01-29T14:34:55.682Z,98633.47
2023-01-29T14:37:33.649Z,98635.81
2023-01-29T14:40:23.612Z,98633.16
2023-01-29T14:43:07.794Z,98640.09
2023-01-29T14:45:38.806Z,98627.81
2023-01-29T14:48:11.892Z,98636.53
2023-01-29T14:50:49.051Z,98633.75
2023-01-29T14:53:31.868Z,98642.13
2023-01-29T14:56:02.083Z,98643.16
2023-01-29T14:58:43.773Z,98638.25
2023-01-29T15:01:32.275Z,98645.41
2023-01-29T15:04:31.197Z,98640.78
2023-01-29T15:07:10.144Z,98644.34
2023-01-29T15:10:24.627Z,98655.53
2023-01-29T15:13:10.176Z,98650.91
2023-01-29T15:15:49.435Z,98654.13
2023-01-29T15:18:23.659Z,98646.94
2023-01-29T15:21:02.615Z,98654.16
2023-01-29T15:23:35.052Z,98653.22
2023-01-29T15:26:04.843Z,98654.22
2023-01-29T15:28:36.675Z,98661.69
2023-01-29T15:31:13.533Z,98652.94
2023-01-29T15:33:45.327Z,98638.75
2023-01-29T15:36:21.085Z,98661.78
2023-01-29T15:38:49.133Z,98652.81
2023-01-29T15:41:21.125Z,98659.75
2023-01-29T15:43:51.607Z,98666.47
2023-01-29T15:46:21.988Z,98667.88
2023-01-29T15:48:50.382Z,98664.59
2023-01-29T15:51:25.433Z,98668.84
2023-01-29T15:53:55.314Z,98677.34
2023-01-29T15:56:37.462Z,98670.63
2023-01-29T15:59:09.638Z,98669.16
2023-01-29T16:01:37.273Z,98679.78
2023-01-29T16:04:04.963Z,98678.94
2023-01-29T16:06:38.728Z,98674.84
2023-01-29T16:09:07.248Z,98675.84
2023-01-29T16:11:37.774Z,98676.41
2023-01-29T16:14:06.521Z,98684.72
2023-01-29T16:16:33.751Z,98689.09
2023-01-29T16:19:01.559Z,98682.16
2023-01-29T16:21:36.282Z,98686.13
2023-01-29T16:24:12.075Z,98684.03
2023-01-29T16:26:45.569Z,98683.50
2023-01-29T16:29:22.668Z,98688.50
2023-01-29T16:31:53.404Z,98690.34
2023-01-29T16:34:25.029Z,98695.69
2023-01-29T16:36:54.521Z,98696.78
2023-01-29T16:39:25.526Z,98696.69
2023-01-29T16:42:13.229Z,98695.09
2023-01-29T16:44:41.275Z,98704.06
2023-01-29T16:47:26.706Z,98705.06
2023-01-29T16:49:57.737Z,98708.63
2023-01-29T16:52:28.191Z,98712.56
2023-01-29T16:55:21.032Z,98707.28
2023-01-29T16:57:55.756Z,98721.22
2023-01-29T17:00:28.856Z,98715.88
2023-01-29T17:03:07.036Z,98715.00
2023-01-29T17:05:37.081Z,98719.19
2023-01-29T17:08:06.178Z,98721.34
2023-01-29T17:10:33.932Z,98718.31
2023-01-29T17:13:07.205Z,98720.38
2023-01-29T17:15:46.517Z,98714.59
2023-01-29T17:18:24.984Z,98712.72
2023-01-29T17:20:55.533Z,98714.53
2023-01-29T17:23:23.581Z,98709.94
2023-01-29T17:25:54.004Z,98712.75
2023-01-29T17:28:22.145Z,98712.28
2023-01-29T17:31:05.007Z,98714.19
2023-01-29T17:33:33.978Z,98718.00
2023-01-29T17:36:01.112Z,98705.00
2023-01-29T17:38:28.328Z,98709.44
2023-01-29T17:41:09.990Z,98701.72
2023-01-29T17:43:37.297Z,98715.78
2023-01-29T17:46:04.471Z,98717.75
2023-01-29T17:48:32.383Z,98715.59
2023-01-29T17:51:03.931Z,98722.16
2023-01-29T17:53:45.258Z,98718.44
2023-01-29T17:56:28.656Z,98719.09
2023-01-29T17:58:55.974Z,98716.50
2023-01-29T18:01:22.923Z,98718.28
2023-01-29T18:03:50.821Z,98719.84
2023-01-29T18:06:28.616Z,98712.16
2023-01-29T18:08:58.944Z,98720.69
2023-01-29T18:11:26.371Z,98717.06
2023-01-29T18:13:53.458Z,98720.66
2023-01-29T18:16:22.450Z,98715.00
2023-01-29T18:18:51.154Z,98727.88
2023-01-29T18:21:18.868Z,98729.16
2023-01-29T18:23:46.155Z,98729.44
2023-01-29T18:26:17.616Z,98719.56
2023-01-29T18:28:45.377Z,98727.81
2023-01-29T18:31:14.149Z,98723.16
2023-01-29T18:33:41.679Z,98723.63
2023-01-29T18:36:11.173Z,98727.47
2023-01-29T18:38:39.038Z,98727.47
2023-01-29T18:41:10.959Z,98729.97
2023-01-29T18:43:42.569Z,98725.25
2023-01-29T18:46:10.843Z,98720.69
2023-01-29T18:48:37.840Z,98724.69
2023-01-29T18:51:05.744Z,98718.16
2023-01-29T18:53:33.630Z,98725.97
2023-01-29T18:56:05.144Z,98721.09
2023-01-29T18:58:36.239Z,98727.06
2023-01-29T19:01:09.687Z,98727.19
2023-01-29T19:03:39.621Z,98723.94
2023-01-29T19:06:10.834Z,98722.19
2023-01-29T19:08:38.555Z,98726.84
2023-01-29T19:11:09.365Z,98726.25
2023-01-29T19:13:40.715Z,98730.53
2023-01-29T19:16:10.646Z,98733.78
2023-01-29T19:18:39.040Z,98726.22
2023-01-29T19:21:11.096Z,98717.91
2023-01-29T19:23:38.301Z,98730.25
2023-01-29T19:26:06.060Z,98728.94
2023-01-29T19:28:33.884Z,98736.94
2023-01-29T19:31:01.229Z,98726.53
2023-01-29T19:33:28.627Z,98729.31
2023-01-29T19:35:57.172Z,98739.06
2023-01-29T19:38:24.343Z,98733.25
2023-01-29T19:40:52.192Z,98740.78
2023-01-29T19:43:19.437Z,98731.44
2023-01-29T19:45:53.345Z,98738.78
2023-01-29T19:48:22.021Z,98747.94
2023-01-29T19:51:08.771Z,98748.59
2023-01-29T19:53:38.006Z,98748.41
2023-01-29T19:56:07.819Z,98747.19
2023-01-29T19:58:35.610Z,98745.13
2023-01-29T20:01:06.932Z,98740.38
2023-01-29T20:03:34.567Z,98745.88
2023-01-29T20:06:05.849Z,98754.31
2023-01-29T20:08:33.908Z,98759.94
2023-01-29T20:11:01.615Z,98755.41
2023-01-29T20:13:29.598Z,98751.50
2023-01-29T20:15:56.788Z,98743.84
2023-01-29T20:18:24.467Z,98746.06
2023-01-29T20:20:53.843Z,98736.09
2023-01-29T20:23:36.636Z,98747.81
2023-01-29T20:26:15.924Z,98739.00
2023-01-29T20:28:45.517Z,98738.09
2023-01-29T20:31:12.653Z,98737.44
2023-01-29T20:33:40.836Z,98732.09
2023-01-29T20:36:10.262Z,98730.25
2023-01-29T20:38:38.203Z,98732.47
2023-01-29T20:41:12.707Z,98727.56
2023-01-29T20:43:40.710Z,98727.06
2023-01-29T20:46:07.915Z,98725.00
2023-01-29T20:48:38.205Z,98728.94
2023-01-29T20:51:10.017Z,98725.88
2023-01-29T20:53:37.380Z,98736.75
2023-01-29T20:56:05.352Z,98729.94
2023-01-29T20:58:32.948Z,98734.38
2023-01-29T21:01:00.072Z,98731.31
2023-01-29T21:03:27.971Z,98732.66
2023-01-29T21:05:59.258Z,98733.56
2023-01-29T21:08:31.245Z,98730.06
2023-01-29T21:10:58.316Z,98733.13
2023-01-29T21:13:25.594Z,98740.72
2023-01-29T21:15:54.997Z,98737.00
2023-01-29T21:18:22.333Z,98742.44
2023-01-29T21:20:50.299Z,98743.75
2023-01-29T21:23:18.174Z,98743.34
2023-01-29T21:25:45.451Z,98737.81
2023-01-29T21:28:15.790Z,98739.41
2023-01-29T21:30:43.766Z,98732.75
2023-01-29T21:33:11.151Z,98731.97
2023-01-29T21:35:38.656Z,98730.91
2023-01-29T21:38:06.437Z,98731.97
2023-01-29T21:40:33.863Z,98730.22
2023-01-29T21:43:15.008Z,98729.00
2023-01-29T21:45:43.377Z,98727.09
2023-01-29T21:48:11.766Z,98724.19
2023-01-29T21:50:39.104Z,98729.31
2023-01-29T21:53:06.322Z,98724.50
2023-01-29T21:55:33.746Z,98731.19
2023-01-29T21:58:00.756Z,98722.59
2023-01-29T22:00:28.204Z,98719.25
2023-01-29T22:02:55.332Z,98725.53
2023-01-29T22:05:22.882Z,98720.53
2023-01-29T22:07:50.644Z,98718.78
2023-01-29T22:10:19.397Z,98715.47
2023-01-29T22:12:48.075Z,98717.81
2023-01-29T22:15:15.791Z,98718.75
2023-01-29T22:17:43.223Z,98723.75
2023-01-29T22:20:14.914Z,98716.72
2023-01-29T22:22:42.660Z,98714.25
2023-01-29T22:25:11.925Z,98709.13
2023-01-29T22:27:39.480Z,98709.31
2023-01-29T22:30:07.503Z,98715.91
2023-01-29T22:32:35.050Z,98717.28
2023-01-29T22:35:05.537Z,98712.97
2023-01-29T22:37:32.917Z,98721.31
2023-01-29T22:40:00.099Z,98714.22
2023-01-29T22:42:28.198Z,98717.16
2023-01-29T22:44:55.185Z,98710.91
2023-01-29T22:47:22.285Z,98711.38
2023-01-29T22:49:51.463Z,98707.63
2023-01-29T22:52:22.519Z,98704.97
2023-01-29T22:54:51.537Z,98711.50
2023-01-29T22:57:19.495Z,98705.19
2023-01-29T22:59:46.562Z,98700.19
2023-01-29T23:02:13.623Z,98710.25
2023-01-29T23:04:40.674Z,98711.19
2023-01-29T23:07:07.723Z,98709.28
2023-01-29T23:09:34.705Z,98710.78
2023-01-29T23:12:04.060Z,98710.03
2023-01-29T23:14:31.234Z,98704.78
2023-01-29T23:16:58.180Z,98710.84
2023-01-29T23:19:25.272Z,98707.25
2023-01-29T23:21:52.253Z,98706.50
2023-01-29T23:24:19.302Z,98708.09
2023-01-29T23:27:04.725Z,98704.00
2023-01-29T23:29:31.864Z,98703.84
2023-01-29T23:31:58.857Z,98699.94
2023-01-29T23:34:25.954Z,98699.50
2023-01-29T23:36:52.966Z,98693.28
2023-01-29T23:39:20.728Z,98692.78
2023-01-29T23:41:47.833Z,98686.09
2023-01-29T23:44:17.277Z,98685.88
2023-01-29T23:46:44.599Z,98679.31
2023-01-29T23:49:12.355Z,98677.59
2023-01-29T23:51:39.800Z,98680.00
2023-01-29T23:54:09.311Z,98674.41
2023-01-29T23:56:36.734Z,98673.34
2023-01-29T23:59:03.786Z,98668.69
